sensor_id;sensor_type;location;lat;lon;timestamp;pressure;altitude;pressure_sealevel;temperature;humidity
41246;BME280;53880;47.526;18.986;2024-01-30T00:01:35;102075.53;;;19.79;44.97
41246;BME280;53880;47.526;18.986;2024-01-30T00:03:53;102067.41;;;19.81;44.71
41246;BME280;53880;47.526;18.986;2024-01-30T00:06:11;102063.97;;;19.78;44.81
41246;BME280;53880;47.526;18.986;2024-01-30T00:08:28;102070.28;;;19.77;44.78
41246;BME280;53880;47.526;18.986;2024-01-30T00:10:46;102071.38;;;19.75;44.71
41246;BME280;53880;47.526;18.986;2024-01-30T00:13:01;102076.03;;;19.71;44.62
41246;BME280;53880;47.526;18.986;2024-01-30T00:15:20;102067.28;;;19.69;44.83
41246;BME280;53880;47.526;18.986;2024-01-30T00:17:36;102065.97;;;19.62;44.89
41246;BME280;53880;47.526;18.986;2024-01-30T00:19:51;102067.81;;;19.62;45.00
41246;BME280;53880;47.526;18.986;2024-01-30T00:22:11;102067.88;;;19.60;44.95
41246;BME280;53880;47.526;18.986;2024-01-30T00:24:31;102071.66;;;19.58;44.63
41246;BME280;53880;47.526;18.986;2024-01-30T00:26:46;102078.91;;;19.56;44.66
41246;BME280;53880;47.526;18.986;2024-01-30T00:29:08;102074.72;;;19.52;44.90
41246;BME280;53880;47.526;18.986;2024-01-30T00:31:23;102082.84;;;19.50;44.77
41246;BME280;53880;47.526;18.986;2024-01-30T00:33:44;102078.56;;;19.48;45.02
41246;BME280;53880;47.526;18.986;2024-01-30T00:35:59;102083.03;;;19.47;44.92
41246;BME280;53880;47.526;18.986;2024-01-30T00:38:17;102080.59;;;19.44;44.75
41246;BME280;53880;47.526;18.986;2024-01-30T00:40:32;102078.03;;;19.43;44.81
41246;BME280;53880;47.526;18.986;2024-01-30T00:42:47;102087.97;;;19.41;44.99
41246;BME280;53880;47.526;18.986;2024-01-30T00:45:05;102089.03;;;19.38;44.78
41246;BME280;53880;47.526;18.986;2024-01-30T00:47:23;102086.44;;;19.37;45.00
41246;BME280;53880;47.526;18.986;2024-01-30T00:49:38;102091.00;;;19.35;44.98
41246;BME280;53880;47.526;18.986;2024-01-30T00:51:56;102077.84;;;19.32;44.87
41246;BME280;53880;47.526;18.986;2024-01-30T00:54:11;102090.34;;;19.31;44.74
41246;BME280;53880;47.526;18.986;2024-01-30T00:56:29;102085.19;;;19.28;44.74
41246;BME280;53880;47.526;18.986;2024-01-30T00:58:49;102083.47;;;19.27;44.84
41246;BME280;53880;47.526;18.986;2024-01-30T01:01:04;102079.94;;;19.27;44.67
41246;BME280;53880;47.526;18.986;2024-01-30T01:03:24;102076.41;;;19.26;44.74
41246;BME280;53880;47.526;18.986;2024-01-30T01:05:42;102074.03;;;19.22;45.01
41246;BME280;53880;47.526;18.986;2024-01-30T01:07:59;102078.56;;;19.21;44.81
41246;BME280;53880;47.526;18.986;2024-01-30T01:10:17;102072.44;;;19.19;45.00
41246;BME280;53880;47.526;18.986;2024-01-30T01:12:33;102072.63;;;19.16;44.81
41246;BME280;53880;47.526;18.986;2024-01-30T01:14:48;102072.00;;;19.13;44.96
41246;BME280;53880;47.526;18.986;2024-01-30T01:17:05;102072.94;;;19.12;45.17
41246;BME280;53880;47.526;18.986;2024-01-30T01:19:25;102070.56;;;19.07;45.04
41246;BME280;53880;47.526;18.986;2024-01-30T01:21:45;102064.47;;;19.05;45.08
41246;BME280;53880;47.526;18.986;2024-01-30T01:24:02;102061.78;;;19.05;44.86
41246;BME280;53880;47.526;18.986;2024-01-30T01:26:20;102067.25;;;19.03;44.90
41246;BME280;53880;47.526;18.986;2024-01-30T01:28:40;102066.38;;;19.03;44.96
41246;BME280;53880;47.526;18.986;2024-01-30T01:30:58;102067.31;;;19.02;44.85
41246;BME280;53880;47.526;18.986;2024-01-30T01:33:19;102057.78;;;18.98;45.13
41246;BME280;53880;47.526;18.986;2024-01-30T01:35:37;102063.34;;;18.95;45.11
41246;BME280;53880;47.526;18.986;2024-01-30T01:37:55;102060.75;;;18.93;44.91
41246;BME280;53880;47.526;18.986;2024-01-30T01:40:19;102060.88;;;18.92;44.86
41246;BME280;53880;47.526;18.986;2024-01-30T01:42:34;102060.22;;;18.88;45.19
41246;BME280;53880;47.526;18.986;2024-01-30T01:44:54;102055.06;;;18.85;45.18
41246;BME280;53880;47.526;18.986;2024-01-30T01:47:14;102060.63;;;18.82;45.24
41246;BME280;53880;47.526;18.986;2024-01-30T01:49:38;102068.94;;;18.78;45.23
41246;BME280;53880;47.526;18.986;2024-01-30T01:51:57;102053.19;;;18.73;45.47
41246;BME280;53880;47.526;18.986;2024-01-30T01:54:15;102064.63;;;18.75;45.58
41246;BME280;53880;47.526;18.986;2024-01-30T01:56:31;102061.09;;;18.75;45.45
41246;BME280;53880;47.526;18.986;2024-01-30T01:58:58;102056.72;;;18.74;45.21
41246;BME280;53880;47.526;18.986;2024-01-30T02:01:19;102056.72;;;18.74;45.20
41246;BME280;53880;47.526;18.986;2024-01-30T02:03:35;102053.28;;;18.72;45.19
41246;BME280;53880;47.526;18.986;2024-01-30T02:05:51;102055.28;;;18.68;45.54
41246;BME280;53880;47.526;18.986;2024-01-30T02:08:11;102053.59;;;18.67;45.27
41246;BME280;53880;47.526;18.986;2024-01-30T02:10:29;102054.53;;;18.66;45.34
41246;BME280;53880;47.526;18.986;2024-01-30T02:12:46;102051.75;;;18.68;45.50
41246;BME280;53880;47.526;18.986;2024-01-30T02:15:04;102057.38;;;18.63;45.43
41246;BME280;53880;47.526;18.986;2024-01-30T02:17:25;102053.97;;;18.61;45.27
41246;BME280;53880;47.526;18.986;2024-01-30T02:19:43;102045.88;;;18.63;45.51
41246;BME280;53880;47.526;18.986;2024-01-30T02:22:00;102039.78;;;18.61;45.21
41246;BME280;53880;47.526;18.986;2024-01-30T02:24:15;102040.91;;;18.57;45.54
41246;BME280;53880;47.526;18.986;2024-01-30T02:26:38;102049.88;;;18.56;45.40
41246;BME280;53880;47.526;18.986;2024-01-30T02:28:53;102040.16;;;18.55;45.36
41246;BME280;53880;47.526;18.986;2024-01-30T02:31:14;102050.00;;;18.54;45.53
41246;BME280;53880;47.526;18.986;2024-01-30T02:33:29;102043.78;;;18.54;45.71
41246;BME280;53880;47.526;18.986;2024-01-30T02:35:46;102047.41;;;18.53;45.45
41246;BME280;53880;47.526;18.986;2024-01-30T02:38:01;102046.63;;;18.51;45.47
41246;BME280;53880;47.526;18.986;2024-01-30T02:40:21;102049.22;;;18.52;45.31
41246;BME280;53880;47.526;18.986;2024-01-30T02:42:39;102052.06;;;18.49;45.60
41246;BME280;53880;47.526;18.986;2024-01-30T02:45:00;102046.63;;;18.51;45.55
41246;BME280;53880;47.526;18.986;2024-01-30T02:47:15;102046.56;;;18.52;45.53
41246;BME280;53880;47.526;18.986;2024-01-30T02:49:32;102051.97;;;18.51;45.38
41246;BME280;53880;47.526;18.986;2024-01-30T02:51:47;102046.63;;;18.51;45.51
41246;BME280;53880;47.526;18.986;2024-01-30T02:54:05;102044.06;;;18.49;45.51
41246;BME280;53880;47.526;18.986;2024-01-30T02:56:20;102043.97;;;18.51;45.39
41246;BME280;53880;47.526;18.986;2024-01-30T02:58:39;102038.63;;;18.51;45.27
41246;BME280;53880;47.526;18.986;2024-01-30T03:00:58;102043.22;;;18.49;45.25
41246;BME280;53880;47.526;18.986;2024-01-30T03:03:17;102040.53;;;18.49;45.48
41246;BME280;53880;47.526;18.986;2024-01-30T03:05:36;102044.25;;;18.46;45.28
41246;BME280;53880;47.526;18.986;2024-01-30T03:07:57;102045.22;;;18.45;45.27
41246;BME280;53880;47.526;18.986;2024-01-30T03:10:16;102043.41;;;18.46;45.27
41246;BME280;53880;47.526;18.986;2024-01-30T03:12:34;102044.44;;;18.43;45.30
41246;BME280;53880;47.526;18.986;2024-01-30T03:14:51;102048.16;;;18.41;45.46
41246;BME280;53880;47.526;18.986;2024-01-30T03:17:13;102052.81;;;18.37;45.53
41246;BME280;53880;47.526;18.986;2024-01-30T03:19:28;102058.25;;;18.36;45.60
41246;BME280;53880;47.526;18.986;2024-01-30T03:21:46;102057.41;;;18.35;45.52
41246;BME280;53880;47.526;18.986;2024-01-30T03:24:05;102060.06;;;18.35;45.44
41246;BME280;53880;47.526;18.986;2024-01-30T03:26:23;102049.69;;;18.31;45.41
41246;BME280;53880;47.526;18.986;2024-01-30T03:28:40;102054.91;;;18.32;45.32
41246;BME280;53880;47.526;18.986;2024-01-30T03:30:58;102052.34;;;18.31;45.42
41246;BME280;53880;47.526;18.986;2024-01-30T03:33:15;102056.81;;;18.30;45.50
41246;BME280;53880;47.526;18.986;2024-01-30T03:35:35;102054.25;;;18.28;45.54
41246;BME280;53880;47.526;18.986;2024-01-30T03:37:55;102046.34;;;18.27;45.54
41246;BME280;53880;47.526;18.986;2024-01-30T03:40:15;102051.66;;;18.27;45.25
41246;BME280;53880;47.526;18.986;2024-01-30T03:42:32;102044.69;;;18.24;45.53
41246;BME280;53880;47.526;18.986;2024-01-30T03:44:50;102039.38;;;18.24;45.30
41246;BME280;53880;47.526;18.986;2024-01-30T03:47:10;102038.53;;;18.24;45.54
41246;BME280;53880;47.526;18.986;2024-01-30T03:49:28;102033.47;;;18.19;45.48
41246;BME280;53880;47.526;18.986;2024-01-30T03:51:45;102029.84;;;18.20;45.53
41246;BME280;53880;47.526;18.986;2024-01-30T03:54:05;102037.78;;;18.22;45.54
41246;BME280;53880;47.526;18.986;2024-01-30T03:56:23;102031.69;;;18.20;45.57
41246;BME280;53880;47.526;18.986;2024-01-30T03:58:40;102034.53;;;18.17;45.43
41246;BME280;53880;47.526;18.986;2024-01-30T04:00:57;102032.78;;;18.16;45.44
41246;BME280;53880;47.526;18.986;2024-01-30T04:03:15;102030.13;;;18.16;45.38
41246;BME280;53880;47.526;18.986;2024-01-30T04:05:33;102034.69;;;18.14;45.62
41246;BME280;53880;47.526;18.986;2024-01-30T04:07:53;102033.88;;;18.13;45.38
41246;BME280;53880;47.526;18.986;2024-01-30T04:10:10;102023.38;;;18.10;45.63
41246;BME280;53880;47.526;18.986;2024-01-30T04:12:25;102031.38;;;18.10;45.68
41246;BME280;53880;47.526;18.986;2024-01-30T04:14:48;102023.47;;;18.09;45.70
41246;BME280;53880;47.526;18.986;2024-01-30T04:17:06;102024.41;;;18.08;45.50
41246;BME280;53880;47.526;18.986;2024-01-30T04:19:26;102024.41;;;18.08;45.40
41246;BME280;53880;47.526;18.986;2024-01-30T04:21:46;102026.22;;;18.07;45.47
41246;BME280;53880;47.526;18.986;2024-01-30T04:24:03;102021.00;;;18.06;45.44
41246;BME280;53880;47.526;18.986;2024-01-30T04:26:19;102025.56;;;18.04;45.62
41246;BME280;53880;47.526;18.986;2024-01-30T04:28:41;102028.13;;;18.05;45.52
41246;BME280;53880;47.526;18.986;2024-01-30T04:31:00;102032.63;;;18.05;45.39
41246;BME280;53880;47.526;18.986;2024-01-30T04:33:15;102030.91;;;18.04;45.38
41246;BME280;53880;47.526;18.986;2024-01-30T04:35:35;102032.81;;;18.02;45.44
41246;BME280;53880;47.526;18.986;2024-01-30T04:37:55;102027.47;;;18.02;45.38
41246;BME280;53880;47.526;18.986;2024-01-30T04:40:13;102024.78;;;18.02;45.43
41246;BME280;53880;47.526;18.986;2024-01-30T04:42:30;102032.03;;;18.00;45.57
41246;BME280;53880;47.526;18.986;2024-01-30T04:44:49;102028.50;;;17.99;45.61
41246;BME280;53880;47.526;18.986;2024-01-30T04:47:06;102029.47;;;17.98;45.55
41246;BME280;53880;47.526;18.986;2024-01-30T04:49:26;102028.63;;;17.98;45.59
41246;BME280;53880;47.526;18.986;2024-01-30T04:51:42;102031.38;;;17.96;45.51
41246;BME280;53880;47.526;18.986;2024-01-30T04:53:59;102034.03;;;17.96;45.54
41246;BME280;53880;47.526;18.986;2024-01-30T04:56:19;102033.25;;;17.94;45.48
41246;BME280;53880;47.526;18.986;2024-01-30T04:58:36;102036.13;;;17.91;45.55
41246;BME280;53880;47.526;18.986;2024-01-30T05:00:53;102035.44;;;17.88;45.47
41246;BME280;53880;47.526;18.986;2024-01-30T05:03:14;102037.34;;;17.86;45.62
41246;BME280;53880;47.526;18.986;2024-01-30T05:05:29;102048.09;;;17.84;45.60
41246;BME280;53880;47.526;18.986;2024-01-30T05:07:45;102033.91;;;17.84;45.63
41246;BME280;53880;47.526;18.986;2024-01-30T05:10:00;102048.09;;;17.84;45.61
41246;BME280;53880;47.526;18.986;2024-01-30T05:12:17;102050.66;;;17.86;45.55
41246;BME280;53880;47.526;18.986;2024-01-30T05:14:32;102049.84;;;17.85;45.57
41246;BME280;53880;47.526;18.986;2024-01-30T05:16:52;102049.25;;;17.80;45.57
41246;BME280;53880;47.526;18.986;2024-01-30T05:19:10;102054.41;;;17.83;45.31
41246;BME280;53880;47.526;18.986;2024-01-30T05:21:28;102055.25;;;17.84;45.39
41246;BME280;53880;47.526;18.986;2024-01-30T05:23:48;102056.69;;;17.89;45.39
41246;BME280;53880;47.526;18.986;2024-01-30T05:26:08;102059.91;;;17.94;45.24
41246;BME280;53880;47.526;18.986;2024-01-30T05:28:25;102063.84;;;18.03;45.10
41246;BME280;53880;47.526;18.986;2024-01-30T05:30:43;102063.50;;;18.09;44.95
41246;BME280;53880;47.526;18.986;2024-01-30T05:32:58;102068.44;;;18.15;44.99
41246;BME280;53880;47.526;18.986;2024-01-30T05:35:18;102065.38;;;18.21;44.91
41246;BME280;53880;47.526;18.986;2024-01-30T05:37:35;102068.44;;;18.29;44.71
41246;BME280;53880;47.526;18.986;2024-01-30T05:39:55;102075.97;;;18.37;44.77
41246;BME280;53880;47.526;18.986;2024-01-30T05:42:13;102066.72;;;18.42;44.46
41246;BME280;53880;47.526;18.986;2024-01-30T05:44:31;102069.91;;;18.49;44.40
41246;BME280;53880;47.526;18.986;2024-01-30T05:46:49;102063.34;;;18.54;44.52
41246;BME280;53880;47.526;18.986;2024-01-30T05:49:06;102066.66;;;18.58;44.32
41246;BME280;53880;47.526;18.986;2024-01-30T05:51:23;102072.56;;;18.63;44.31
41246;BME280;53880;47.526;18.986;2024-01-30T05:53:43;102066.84;;;18.69;44.15
41246;BME280;53880;47.526;18.986;2024-01-30T05:56:01;102071.03;;;18.73;44.25
41246;BME280;53880;47.526;18.986;2024-01-30T05:58:19;102077.78;;;18.78;44.05
41246;BME280;53880;47.526;18.986;2024-01-30T06:00:36;102065.09;;;18.82;43.95
41246;BME280;53880;47.526;18.986;2024-01-30T06:02:51;102061.28;;;18.86;44.09
41246;BME280;53880;47.526;18.986;2024-01-30T06:05:11;102061.84;;;18.91;43.93
41246;BME280;53880;47.526;18.986;2024-01-30T06:07:27;102066.91;;;18.95;43.91
41246;BME280;53880;47.526;18.986;2024-01-30T06:09:44;102071.06;;;18.99;43.99
41246;BME280;53880;47.526;18.986;2024-01-30T06:12:01;102067.31;;;19.02;43.80
41246;BME280;53880;47.526;18.986;2024-01-30T06:14:15;102069.69;;;19.07;43.76
41246;BME280;53880;47.526;18.986;2024-01-30T06:16:33;102073.13;;;19.09;43.72
41246;BME280;53880;47.526;18.986;2024-01-30T06:18:55;102071.88;;;19.14;43.71
41246;BME280;53880;47.526;18.986;2024-01-30T06:21:13;102072.53;;;19.18;43.82
41246;BME280;53880;47.526;18.986;2024-01-30T06:23:33;102070.53;;;19.21;43.87
41246;BME280;53880;47.526;18.986;2024-01-30T06:25:51;102077.47;;;19.24;43.85
41246;BME280;53880;47.526;18.986;2024-01-30T06:28:08;102071.00;;;19.28;43.69
41246;BME280;53880;47.526;18.986;2024-01-30T06:30:28;102082.31;;;19.31;43.65
41246;BME280;53880;47.526;18.986;2024-01-30T06:32:45;102071.47;;;19.34;43.49
41246;BME280;53880;47.526;18.986;2024-01-30T06:35:03;102072.13;;;19.38;43.55
41246;BME280;53880;47.526;18.986;2024-01-30T06:37:18;102075.44;;;19.41;43.60
41246;BME280;53880;47.526;18.986;2024-01-30T06:39:36;102070.84;;;19.43;43.41
41246;BME280;53880;47.526;18.986;2024-01-30T06:41:51;102079.53;;;19.47;43.36
41246;BME280;53880;47.526;18.986;2024-01-30T06:44:08;102081.16;;;19.49;43.61
41246;BME280;53880;47.526;18.986;2024-01-30T06:46:31;102088.84;;;19.54;43.48
41246;BME280;53880;47.526;18.986;2024-01-30T06:48:51;102085.97;;;19.57;43.38
41246;BME280;53880;47.526;18.986;2024-01-30T06:51:09;102083.09;;;19.60;43.39
41246;BME280;53880;47.526;18.986;2024-01-30T06:53:29;102084.59;;;19.64;43.32
41246;BME280;53880;47.526;18.986;2024-01-30T06:55:44;102085.25;;;19.67;43.31
41246;BME280;53880;47.526;18.986;2024-01-30T06:58:01;102077.03;;;19.70;43.27
41246;BME280;53880;47.526;18.986;2024-01-30T07:00:19;102081.19;;;19.74;43.14
41246;BME280;53880;47.526;18.986;2024-01-30T07:02:44;102077.47;;;19.77;43.06
41246;BME280;53880;47.526;18.986;2024-01-30T07:04:59;102085.25;;;19.80;43.26
41246;BME280;53880;47.526;18.986;2024-01-30T07:07:16;102084.19;;;19.83;43.26
41246;BME280;53880;47.526;18.986;2024-01-30T07:09:34;102089.25;;;19.87;43.26
41246;BME280;53880;47.526;18.986;2024-01-30T07:11:53;102072.25;;;19.88;43.04
41246;BME280;53880;47.526;18.986;2024-01-30T07:14:13;102083.69;;;19.90;43.16
41246;BME280;53880;47.526;18.986;2024-01-30T07:16:28;102086.13;;;19.93;43.27
41246;BME280;53880;47.526;18.986;2024-01-30T07:18:50;102085.94;;;19.96;43.28
41246;BME280;53880;47.526;18.986;2024-01-30T07:21:10;102082.19;;;19.99;43.44
41246;BME280;53880;47.526;18.986;2024-01-30T07:23:27;102088.38;;;19.99;43.40
41246;BME280;53880;47.526;18.986;2024-01-30T07:25:49;102092.69;;;20.02;43.16
41246;BME280;53880;47.526;18.986;2024-01-30T07:28:09;102086.38;;;20.03;42.93
41246;BME280;53880;47.526;18.986;2024-01-30T07:30:29;102091.50;;;20.06;43.07
41246;BME280;53880;47.526;18.986;2024-01-30T07:32:45;102078.88;;;20.08;43.08
41246;BME280;53880;47.526;18.986;2024-01-30T07:35:03;102076.09;;;20.09;43.24
41246;BME280;53880;47.526;18.986;2024-01-30T07:37:21;102083.91;;;20.12;43.00
41246;BME280;53880;47.526;18.986;2024-01-30T07:39:38;102070.53;;;20.12;42.90
41246;BME280;53880;47.526;18.986;2024-01-30T07:41:56;102071.28;;;20.14;42.93
41246;BME280;53880;47.526;18.986;2024-01-30T07:44:18;102066.78;;;20.15;42.99
41246;BME280;53880;47.526;18.986;2024-01-30T07:46:35;102070.22;;;20.17;42.90
41246;BME280;53880;47.526;18.986;2024-01-30T07:48:51;102072.78;;;20.18;42.89
41246;BME280;53880;47.526;18.986;2024-01-30T07:51:08;102069.13;;;20.19;42.94
41246;BME280;53880;47.526;18.986;2024-01-30T07:53:23;102073.56;;;20.20;42.75
41246;BME280;53880;47.526;18.986;2024-01-30T07:55:41;102075.28;;;20.21;42.62
41246;BME280;53880;47.526;18.986;2024-01-30T07:58:01;102074.22;;;20.24;42.77
41246;BME280;53880;47.526;18.986;2024-01-30T08:00:20;102075.94;;;20.25;42.43
41246;BME280;53880;47.526;18.986;2024-01-30T08:02:40;102073.13;;;20.26;42.46
41246;BME280;53880;47.526;18.986;2024-01-30T08:04:58;102070.34;;;20.28;42.72
41246;BME280;53880;47.526;18.986;2024-01-30T08:07:13;102068.41;;;20.30;42.75
41246;BME280;53880;47.526;18.986;2024-01-30T08:09:31;102075.50;;;20.31;42.42
41246;BME280;53880;47.526;18.986;2024-01-30T08:11:51;102080.63;;;20.34;42.50
41246;BME280;53880;47.526;18.986;2024-01-30T08:14:10;102073.31;;;20.36;42.90
41246;BME280;53880;47.526;18.986;2024-01-30T08:16:28;102077.41;;;20.41;42.95
41246;BME280;53880;47.526;18.986;2024-01-30T08:18:50;102082.53;;;20.44;42.87
41246;BME280;53880;47.526;18.986;2024-01-30T08:21:13;102081.13;;;20.51;42.97
41246;BME280;53880;47.526;18.986;2024-01-30T08:23:30;102080.38;;;20.62;42.97
41246;BME280;53880;47.526;18.986;2024-01-30T08:25:48;102081.53;;;20.71;42.60
41246;BME280;53880;47.526;18.986;2024-01-30T08:28:05;102092.66;;;20.77;42.19
41246;BME280;53880;47.526;18.986;2024-01-30T08:30:22;102084.19;;;20.83;42.10
41246;BME280;53880;47.526;18.986;2024-01-30T08:32:42;102079.47;;;20.87;41.87
41246;BME280;53880;47.526;18.986;2024-01-30T08:34:57;102092.53;;;20.91;41.77
41246;BME280;53880;47.526;18.986;2024-01-30T08:37:17;102082.44;;;20.95;41.75
41246;BME280;53880;47.526;18.986;2024-01-30T08:39:34;102082.31;;;20.96;41.67
41246;BME280;53880;47.526;18.986;2024-01-30T08:41:52;102092.81;;;20.99;41.69
41246;BME280;53880;47.526;18.986;2024-01-30T08:44:12;102095.38;;;21.01;41.79
41246;BME280;53880;47.526;18.986;2024-01-30T08:46:27;102093.47;;;21.03;41.60
41246;BME280;53880;47.526;18.986;2024-01-30T08:48:42;102089.72;;;21.05;41.62
41246;BME280;53880;47.526;18.986;2024-01-30T08:50:59;102089.59;;;21.07;42.20
41246;BME280;53880;47.526;18.986;2024-01-30T08:53:14;102084.50;;;21.04;42.33
41246;BME280;53880;47.526;18.986;2024-01-30T08:55:30;102083.19;;;20.97;41.90
41246;BME280;53880;47.526;18.986;2024-01-30T08:57:47;102083.84;;;20.88;41.42
41246;BME280;53880;47.526;18.986;2024-01-30T09:00:07;102086.22;;;20.80;41.20
41246;BME280;53880;47.526;18.986;2024-01-30T09:02:26;102083.75;;;20.77;41.47
41246;BME280;53880;47.526;18.986;2024-01-30T09:04:41;102079.94;;;20.81;41.12
41246;BME280;53880;47.526;18.986;2024-01-30T09:07:01;102075.31;;;20.83;41.10
41246;BME280;53880;47.526;18.986;2024-01-30T09:09:21;102081.81;;;20.91;41.27
41246;BME280;53880;47.526;18.986;2024-01-30T09:11:38;102082.44;;;20.95;40.73
41246;BME280;53880;47.526;18.986;2024-01-30T09:13:56;102081.50;;;20.96;40.57
41246;BME280;53880;47.526;18.986;2024-01-30T09:16:14;102071.59;;;20.96;40.58
41246;BME280;53880;47.526;18.986;2024-01-30T09:18:31;102076.75;;;20.99;40.39
41246;BME280;53880;47.526;18.986;2024-01-30T09:20:46;102076.63;;;21.01;40.44
41246;BME280;53880;47.526;18.986;2024-01-30T09:23:05;102074.72;;;21.03;40.35
41246;BME280;53880;47.526;18.986;2024-01-30T09:25:22;102077.19;;;21.06;40.21
41246;BME280;53880;47.526;18.986;2024-01-30T09:27:43;102075.25;;;21.08;40.19
41246;BME280;53880;47.526;18.986;2024-01-30T09:30:01;102071.63;;;21.09;40.07
41246;BME280;53880;47.526;18.986;2024-01-30T09:32:19;102067.94;;;21.10;39.93
41246;BME280;53880;47.526;18.986;2024-01-30T09:34:36;102078.34;;;21.14;39.83
41246;BME280;53880;47.526;18.986;2024-01-30T09:36:54;102077.25;;;21.17;40.05
41246;BME280;53880;47.526;18.986;2024-01-30T09:39:14;102078.00;;;21.19;39.73
41246;BME280;53880;47.526;18.986;2024-01-30T09:41:48;102072.38;;;21.22;39.62
41246;BME280;53880;47.526;18.986;2024-01-30T09:44:05;102076.78;;;21.23;39.57
41246;BME280;53880;47.526;18.986;2024-01-30T09:46:27;102079.25;;;21.26;39.55
41246;BME280;53880;47.526;18.986;2024-01-30T09:48:46;102069.50;;;21.25;39.55
41246;BME280;53880;47.526;18.986;2024-01-30T09:51:07;102068.75;;;21.23;39.48
41246;BME280;53880;47.526;18.986;2024-01-30T09:53:25;102075.31;;;21.19;39.49
41246;BME280;53880;47.526;18.986;2024-01-30T09:55:47;102065.66;;;21.16;39.49
41246;BME280;53880;47.526;18.986;2024-01-30T09:58:05;102072.22;;;21.12;39.57
41246;BME280;53880;47.526;18.986;2024-01-30T10:00:23;102071.63;;;21.09;39.82
41246;BME280;53880;47.526;18.986;2024-01-30T10:02:44;102075.25;;;21.08;39.72
41246;BME280;53880;47.526;18.986;2024-01-30T10:05:05;102074.06;;;21.12;39.64
41246;BME280;53880;47.526;18.986;2024-01-30T10:07:23;102074.56;;;21.17;39.49
41246;BME280;53880;47.526;18.986;2024-01-30T10:09:38;102073.38;;;21.21;39.08
41246;BME280;53880;47.526;18.986;2024-01-30T10:11:58;102073.25;;;21.22;39.07
41246;BME280;53880;47.526;18.986;2024-01-30T10:14:15;102075.84;;;21.24;39.12
41246;BME280;53880;47.526;18.986;2024-01-30T10:16:35;102068.75;;;21.23;39.04
41246;BME280;53880;47.526;18.986;2024-01-30T10:18:53;102069.63;;;21.23;38.92
41246;BME280;53880;47.526;18.986;2024-01-30T10:21:10;102062.31;;;21.25;39.08
41246;BME280;53880;47.526;18.986;2024-01-30T10:23:26;102058.91;;;21.23;39.01
41246;BME280;53880;47.526;18.986;2024-01-30T10:25:45;102055.34;;;21.23;39.04
41246;BME280;53880;47.526;18.986;2024-01-30T10:28:01;102053.63;;;21.22;38.92
41246;BME280;53880;47.526;18.986;2024-01-30T10:30:18;102057.28;;;21.21;38.91
41246;BME280;53880;47.526;18.986;2024-01-30T10:32:38;102044.34;;;21.15;39.07
41246;BME280;53880;47.526;18.986;2024-01-30T10:35:01;102052.50;;;21.13;39.31
41246;BME280;53880;47.526;18.986;2024-01-30T10:37:19;102049.06;;;21.11;39.44
41246;BME280;53880;47.526;18.986;2024-01-30T10:39:38;102049.81;;;21.13;39.66
41246;BME280;53880;47.526;18.986;2024-01-30T10:41:58;102046.78;;;21.18;39.30
41246;BME280;53880;47.526;18.986;2024-01-30T10:44:24;102039.25;;;21.23;39.25
41246;BME280;53880;47.526;18.986;2024-01-30T10:46:49;102029.28;;;21.25;38.93
41246;BME280;53880;47.526;18.986;2024-01-30T10:49:13;102034.31;;;21.30;38.81
41246;BME280;53880;47.526;18.986;2024-01-30T10:51:29;102029.56;;;21.33;38.79
41246;BME280;53880;47.526;18.986;2024-01-30T10:53:54;102022.16;;;21.37;38.73
41246;BME280;53880;47.526;18.986;2024-01-30T10:56:16;102016.53;;;21.40;38.76
41246;BME280;53880;47.526;18.986;2024-01-30T10:58:36;102015.47;;;21.42;38.51
41246;BME280;53880;47.526;18.986;2024-01-30T11:01:05;102006.34;;;21.45;38.46
41246;BME280;53880;47.526;18.986;2024-01-30T11:03:29;101999.88;;;21.47;38.43
41246;BME280;53880;47.526;18.986;2024-01-30T11:05:52;101998.81;;;21.50;38.43
41246;BME280;53880;47.526;18.986;2024-01-30T11:08:13;101996.13;;;21.50;38.55
41246;BME280;53880;47.526;18.986;2024-01-30T11:10:44;101989.88;;;21.49;38.63
41246;BME280;53880;47.526;18.986;2024-01-30T11:13:10;101998.88;;;21.48;38.52
41246;BME280;53880;47.526;18.986;2024-01-30T11:15:28;101993.53;;;21.48;38.33
41246;BME280;53880;47.526;18.986;2024-01-30T11:20:10;101991.72;;;21.49;38.15
41246;BME280;53880;47.526;18.986;2024-01-30T11:22:30;101991.72;;;21.49;38.23
41246;BME280;53880;47.526;18.986;2024-01-30T11:24:53;101982.19;;;21.45;38.46
41246;BME280;53880;47.526;18.986;2024-01-30T11:27:09;101984.38;;;21.40;38.30
41246;BME280;53880;47.526;18.986;2024-01-30T11:29:30;101993.00;;;21.32;38.48
41246;BME280;53880;47.526;18.986;2024-01-30T11:31:52;101986.03;;;21.30;38.69
41246;BME280;53880;47.526;18.986;2024-01-30T11:34:08;101985.31;;;21.27;38.39
41246;BME280;53880;47.526;18.986;2024-01-30T11:36:27;101990.66;;;21.27;38.63
41246;BME280;53880;47.526;18.986;2024-01-30T11:38:43;101988.13;;;21.26;38.68
41246;BME280;53880;47.526;18.986;2024-01-30T11:41:03;101975.53;;;21.26;38.53
41246;BME280;53880;47.526;18.986;2024-01-30T11:43:21;101975.53;;;21.26;38.75
41246;BME280;53880;47.526;18.986;2024-01-30T11:45:39;101978.13;;;21.28;38.67
41246;BME280;53880;47.526;18.986;2024-01-30T11:47:58;101972.03;;;21.26;38.58
41246;BME280;53880;47.526;18.986;2024-01-30T11:50:20;101969.44;;;21.24;38.71
41246;BME280;53880;47.526;18.986;2024-01-30T11:52:41;101963.47;;;21.21;38.70
41246;BME280;53880;47.526;18.986;2024-01-30T11:54:58;101961.13;;;21.16;38.65
41246;BME280;53880;47.526;18.986;2024-01-30T11:57:16;101963.09;;;21.14;38.78